sensor_id;sensor_type;location;lat;lon;timestamp;P1;durP1;ratioP1;P2;durP2;ratioP2
80175;SDS011;71945;42.122;24.732;2023-08-07T00:00:11;0.77;;;0.75;;
80175;SDS011;71945;42.122;24.732;2023-08-07T00:02:37;0.80;;;0.68;;
80175;SDS011;71945;42.122;24.732;2023-08-07T00:05:03;2.28;;;0.77;;
80175;SDS011;71945;42.122;24.732;2023-08-07T00:07:29;1.35;;;0.70;;
80175;SDS011;71945;42.122;24.732;2023-08-07T00:09:55;1.85;;;0.75;;
80175;SDS011;71945;42.122;24.732;2023-08-07T00:12:20;1.92;;;0.73;;
80175;SDS011;71945;42.122;24.732;2023-08-07T00:14:50;1.10;;;1.00;;
80175;SDS011;71945;42.122;24.732;2023-08-07T00:17:16;0.80;;;0.80;;
80175;SDS011;71945;42.122;24.732;2023-08-07T00:19:41;2.50;;;0.75;;
80175;SDS011;71945;42.122;24.732;2023-08-07T00:22:07;1.65;;;0.90;;
80175;SDS011;71945;42.122;24.732;2023-08-07T00:24:32;2.08;;;1.40;;
80175;SDS011;71945;42.122;24.732;2023-08-07T00:26:58;0.82;;;0.82;;
80175;SDS011;71945;42.122;24.732;2023-08-07T00:29:24;2.05;;;0.93;;
80175;SDS011;71945;42.122;24.732;2023-08-07T00:31:49;2.05;;;1.13;;
80175;SDS011;71945;42.122;24.732;2023-08-07T00:34:15;3.42;;;1.02;;
80175;SDS011;71945;42.122;24.732;2023-08-07T00:36:41;1.17;;;0.90;;
80175;SDS011;71945;42.122;24.732;2023-08-07T00:39:06;1.50;;;1.15;;
80175;SDS011;71945;42.122;24.732;2023-08-07T00:41:33;1.52;;;0.90;;
80175;SDS011;71945;42.122;24.732;2023-08-07T00:43:59;2.45;;;0.90;;
80175;SDS011;71945;42.122;24.732;2023-08-07T00:46:26;0.80;;;0.80;;
80175;SDS011;71945;42.122;24.732;2023-08-07T00:48:52;1.00;;;0.90;;
80175;SDS011;71945;42.122;24.732;2023-08-07T00:51:19;1.48;;;0.70;;
80175;SDS011;71945;42.122;24.732;2023-08-07T00:53:46;1.58;;;0.77;;
80175;SDS011;71945;42.122;24.732;2023-08-07T00:56:13;1.00;;;0.98;;
80175;SDS011;71945;42.122;24.732;2023-08-07T00:58:39;1.27;;;1.00;;
80175;SDS011;71945;42.122;24.732;2023-08-07T01:01:05;0.70;;;0.70;;
80175;SDS011;71945;42.122;24.732;2023-08-07T01:03:31;1.63;;;0.98;;
80175;SDS011;71945;42.122;24.732;2023-08-07T01:05:57;1.05;;;0.98;;
80175;SDS011;71945;42.122;24.732;2023-08-07T01:08:26;1.30;;;0.70;;
80175;SDS011;71945;42.122;24.732;2023-08-07T01:13:37;0.90;;;0.90;;
80175;SDS011;71945;42.122;24.732;2023-08-07T01:16:14;1.15;;;1.05;;
80175;SDS011;71945;42.122;24.732;2023-08-07T01:18:46;1.35;;;1.10;;
80175;SDS011;71945;42.122;24.732;2023-08-07T01:21:18;0.80;;;0.80;;
80175;SDS011;71945;42.122;24.732;2023-08-07T01:23:47;1.30;;;1.10;;
80175;SDS011;71945;42.122;24.732;2023-08-07T01:26:13;1.58;;;1.25;;
80175;SDS011;71945;42.122;24.732;2023-08-07T01:28:46;2.30;;;1.00;;
80175;SDS011;71945;42.122;24.732;2023-08-07T01:31:18;1.40;;;1.10;;
80175;SDS011;71945;42.122;24.732;2023-08-07T01:36:15;1.48;;;0.90;;
80175;SDS011;71945;42.122;24.732;2023-08-07T01:38:41;1.05;;;1.00;;
80175;SDS011;71945;42.122;24.732;2023-08-07T01:41:08;1.30;;;1.00;;
80175;SDS011;71945;42.122;24.732;2023-08-07T01:43:34;1.15;;;1.10;;
80175;SDS011;71945;42.122;24.732;2023-08-07T01:46:01;1.08;;;1.00;;
80175;SDS011;71945;42.122;24.732;2023-08-07T01:48:27;1.42;;;1.30;;
80175;SDS011;71945;42.122;24.732;2023-08-07T01:50:53;1.00;;;1.00;;
80175;SDS011;71945;42.122;24.732;2023-08-07T01:53:20;1.25;;;1.20;;
80175;SDS011;71945;42.122;24.732;2023-08-07T01:55:46;1.70;;;1.27;;
80175;SDS011;71945;42.122;24.732;2023-08-07T01:58:11;1.30;;;1.20;;
80175;SDS011;71945;42.122;24.732;2023-08-07T02:00:37;1.50;;;1.40;;
80175;SDS011;71945;42.122;24.732;2023-08-07T02:03:03;1.88;;;1.15;;
80175;SDS011;71945;42.122;24.732;2023-08-07T02:05:28;1.33;;;1.23;;
80175;SDS011;71945;42.122;24.732;2023-08-07T02:07:54;4.57;;;1.60;;
80175;SDS011;71945;42.122;24.732;2023-08-07T02:10:21;1.60;;;1.50;;
80175;SDS011;71945;42.122;24.732;2023-08-07T02:12:48;1.58;;;1.50;;
80175;SDS011;71945;42.122;24.732;2023-08-07T02:15:14;3.78;;;1.73;;
80175;SDS011;71945;42.122;24.732;2023-08-07T02:17:39;2.40;;;2.20;;
80175;SDS011;71945;42.122;24.732;2023-08-07T02:20:06;2.63;;;2.33;;
80175;SDS011;71945;42.122;24.732;2023-08-07T02:22:32;2.25;;;2.15;;
80175;SDS011;71945;42.122;24.732;2023-08-07T02:24:58;2.10;;;2.00;;
80175;SDS011;71945;42.122;24.732;2023-08-07T02:27:24;1.70;;;1.60;;
80175;SDS011;71945;42.122;24.732;2023-08-07T02:29:49;1.77;;;1.67;;
80175;SDS011;71945;42.122;24.732;2023-08-07T02:32:19;2.00;;;1.77;;
80175;SDS011;71945;42.122;24.732;2023-08-07T02:34:44;1.95;;;1.85;;
80175;SDS011;71945;42.122;24.732;2023-08-07T02:37:11;1.80;;;1.70;;
80175;SDS011;71945;42.122;24.732;2023-08-07T02:39:36;2.00;;;1.90;;
80175;SDS011;71945;42.122;24.732;2023-08-07T02:42:02;2.00;;;1.75;;
80175;SDS011;71945;42.122;24.732;2023-08-07T02:44:28;6.72;;;2.45;;
80175;SDS011;71945;42.122;24.732;2023-08-07T02:46:53;2.42;;;2.22;;
80175;SDS011;71945;42.122;24.732;2023-08-07T02:49:19;2.15;;;1.98;;
80175;SDS011;71945;42.122;24.732;2023-08-07T02:51:45;2.65;;;2.45;;
80175;SDS011;71945;42.122;24.732;2023-08-07T02:54:11;3.30;;;2.50;;
80175;SDS011;71945;42.122;24.732;2023-08-07T02:56:36;2.67;;;2.47;;
80175;SDS011;71945;42.122;24.732;2023-08-07T02:59:02;2.60;;;2.40;;
80175;SDS011;71945;42.122;24.732;2023-08-07T03:01:28;2.80;;;2.60;;
80175;SDS011;71945;42.122;24.732;2023-08-07T03:03:54;2.58;;;2.45;;
80175;SDS011;71945;42.122;24.732;2023-08-07T03:06:19;2.42;;;2.33;;
80175;SDS011;71945;42.122;24.732;2023-08-07T03:08:45;2.70;;;2.50;;
80175;SDS011;71945;42.122;24.732;2023-08-07T03:11:10;2.55;;;2.35;;
80175;SDS011;71945;42.122;24.732;2023-08-07T03:13:36;2.65;;;2.38;;
80175;SDS011;71945;42.122;24.732;2023-08-07T03:16:02;2.47;;;2.00;;
80175;SDS011;71945;42.122;24.732;2023-08-07T03:18:29;2.50;;;2.40;;
80175;SDS011;71945;42.122;24.732;2023-08-07T03:20:56;2.70;;;2.50;;
80175;SDS011;71945;42.122;24.732;2023-08-07T03:23:25;4.57;;;2.40;;
80175;SDS011;71945;42.122;24.732;2023-08-07T03:26:01;2.75;;;2.55;;
80175;SDS011;71945;42.122;24.732;2023-08-07T03:28:27;2.50;;;2.30;;
80175;SDS011;71945;42.122;24.732;2023-08-07T03:30:53;2.78;;;2.58;;
80175;SDS011;71945;42.122;24.732;2023-08-07T03:33:19;2.10;;;2.00;;
80175;SDS011;71945;42.122;24.732;2023-08-07T03:35:44;2.40;;;2.08;;
80175;SDS011;71945;42.122;24.732;2023-08-07T03:38:10;2.85;;;2.20;;
80175;SDS011;71945;42.122;24.732;2023-08-07T03:40:36;2.40;;;2.20;;
80175;SDS011;71945;42.122;24.732;2023-08-07T03:43:02;2.55;;;2.35;;
80175;SDS011;71945;42.122;24.732;2023-08-07T03:45:27;2.75;;;2.17;;
80175;SDS011;71945;42.122;24.732;2023-08-07T03:47:53;2.40;;;2.20;;
80175;SDS011;71945;42.122;24.732;2023-08-07T03:50:19;3.20;;;1.98;;
80175;SDS011;71945;42.122;24.732;2023-08-07T03:52:44;4.93;;;2.17;;
80175;SDS011;71945;42.122;24.732;2023-08-07T03:55:10;2.25;;;2.10;;
80175;SDS011;71945;42.122;24.732;2023-08-07T03:57:36;2.08;;;1.70;;
80175;SDS011;71945;42.122;24.732;2023-08-07T04:00:01;2.88;;;1.90;;
80175;SDS011;71945;42.122;24.732;2023-08-07T04:02:28;4.18;;;2.10;;
80175;SDS011;71945;42.122;24.732;2023-08-07T04:04:55;2.00;;;1.85;;
80175;SDS011;71945;42.122;24.732;2023-08-07T04:07:20;3.53;;;1.90;;
80175;SDS011;71945;42.122;24.732;2023-08-07T04:09:46;3.50;;;1.60;;
80175;SDS011;71945;42.122;24.732;2023-08-07T04:12:12;2.63;;;1.60;;
80175;SDS011;71945;42.122;24.732;2023-08-07T04:14:37;2.05;;;1.95;;
80175;SDS011;71945;42.122;24.732;2023-08-07T04:17:03;2.10;;;2.00;;
80175;SDS011;71945;42.122;24.732;2023-08-07T04:19:32;3.40;;;1.73;;
80175;SDS011;71945;42.122;24.732;2023-08-07T04:21:57;3.00;;;1.83;;
80175;SDS011;71945;42.122;24.732;2023-08-07T04:24:23;8.85;;;1.80;;
80175;SDS011;71945;42.122;24.732;2023-08-07T04:26:49;5.40;;;1.63;;
80175;SDS011;71945;42.122;24.732;2023-08-07T04:29:14;2.63;;;1.40;;
80175;SDS011;71945;42.122;24.732;2023-08-07T04:31:40;2.53;;;1.70;;
80175;SDS011;71945;42.122;24.732;2023-08-07T04:34:06;1.63;;;1.52;;
80175;SDS011;71945;42.122;24.732;2023-08-07T04:36:31;2.25;;;1.20;;
80175;SDS011;71945;42.122;24.732;2023-08-07T04:38:58;4.05;;;1.90;;
80175;SDS011;71945;42.122;24.732;2023-08-07T04:41:23;2.10;;;1.90;;
80175;SDS011;71945;42.122;24.732;2023-08-07T04:43:49;1.70;;;1.60;;
80175;SDS011;71945;42.122;24.732;2023-08-07T04:46:15;1.70;;;1.60;;
80175;SDS011;71945;42.122;24.732;2023-08-07T04:48:40;2.00;;;1.90;;
80175;SDS011;71945;42.122;24.732;2023-08-07T04:51:06;2.15;;;2.03;;
80175;SDS011;71945;42.122;24.732;2023-08-07T04:53:32;3.17;;;2.92;;
80175;SDS011;71945;42.122;24.732;2023-08-07T04:56:00;2.53;;;2.33;;
80175;SDS011;71945;42.122;24.732;2023-08-07T04:58:27;2.58;;;2.00;;
80175;SDS011;71945;42.122;24.732;2023-08-07T05:00:58;9.93;;;2.15;;
80175;SDS011;71945;42.122;24.732;2023-08-07T05:03:25;5.40;;;2.97;;
80175;SDS011;71945;42.122;24.732;2023-08-07T05:05:57;2.10;;;2.00;;
80175;SDS011;71945;42.122;24.732;2023-08-07T05:08:24;2.83;;;1.70;;
80175;SDS011;71945;42.122;24.732;2023-08-07T05:10:50;3.25;;;2.28;;
80175;SDS011;71945;42.122;24.732;2023-08-07T05:13:16;4.75;;;2.10;;
80175;SDS011;71945;42.122;24.732;2023-08-07T05:15:42;2.08;;;1.98;;
80175;SDS011;71945;42.122;24.732;2023-08-07T05:18:07;2.30;;;2.10;;
80175;SDS011;71945;42.122;24.732;2023-08-07T05:20:33;2.15;;;1.95;;
80175;SDS011;71945;42.122;24.732;2023-08-07T05:22:58;2.00;;;1.90;;
80175;SDS011;71945;42.122;24.732;2023-08-07T05:25:24;2.42;;;2.13;;
80175;SDS011;71945;42.122;24.732;2023-08-07T05:27:50;3.17;;;2.00;;
80175;SDS011;71945;42.122;24.732;2023-08-07T05:30:16;3.50;;;2.42;;
80175;SDS011;71945;42.122;24.732;2023-08-07T05:32:42;3.00;;;2.70;;
80175;SDS011;71945;42.122;24.732;2023-08-07T05:35:08;2.42;;;2.33;;
80175;SDS011;71945;42.122;24.732;2023-08-07T05:37:34;2.90;;;2.20;;
80175;SDS011;71945;42.122;24.732;2023-08-07T05:40:00;2.63;;;2.42;;
80175;SDS011;71945;42.122;24.732;2023-08-07T05:42:26;3.85;;;2.42;;
80175;SDS011;71945;42.122;24.732;2023-08-07T05:44:52;2.60;;;2.50;;
80175;SDS011;71945;42.122;24.732;2023-08-07T05:47:18;5.28;;;2.90;;
80175;SDS011;71945;42.122;24.732;2023-08-07T05:49:43;3.20;;;2.70;;
80175;SDS011;71945;42.122;24.732;2023-08-07T05:52:09;3.03;;;2.83;;
80175;SDS011;71945;42.122;24.732;2023-08-07T05:54:35;2.65;;;2.45;;
80175;SDS011;71945;42.122;24.732;2023-08-07T05:57:00;3.15;;;2.85;;
80175;SDS011;71945;42.122;24.732;2023-08-07T05:59:26;2.90;;;2.70;;
80175;SDS011;71945;42.122;24.732;2023-08-07T06:01:52;6.07;;;2.63;;
80175;SDS011;71945;42.122;24.732;2023-08-07T06:04:18;2.25;;;2.15;;
80175;SDS011;71945;42.122;24.732;2023-08-07T06:06:45;3.75;;;2.40;;
80175;SDS011;71945;42.122;24.732;2023-08-07T06:09:11;2.85;;;2.65;;
80175;SDS011;71945;42.122;24.732;2023-08-07T06:11:37;3.15;;;2.30;;
80175;SDS011;71945;42.122;24.732;2023-08-07T06:14:03;3.28;;;2.40;;
80175;SDS011;71945;42.122;24.732;2023-08-07T06:16:28;2.40;;;2.10;;
80175;SDS011;71945;42.122;24.732;2023-08-07T06:18:57;2.30;;;2.20;;
80175;SDS011;71945;42.122;24.732;2023-08-07T06:21:23;2.20;;;2.10;;
80175;SDS011;71945;42.122;24.732;2023-08-07T06:23:48;2.20;;;2.10;;
80175;SDS011;71945;42.122;24.732;2023-08-07T06:26:14;4.90;;;2.17;;
80175;SDS011;71945;42.122;24.732;2023-08-07T06:28:41;3.78;;;2.30;;
80175;SDS011;71945;42.122;24.732;2023-08-07T06:31:07;2.97;;;2.25;;
80175;SDS011;71945;42.122;24.732;2023-08-07T06:33:37;3.53;;;2.42;;
80175;SDS011;71945;42.122;24.732;2023-08-07T06:36:06;2.50;;;2.30;;
80175;SDS011;71945;42.122;24.732;2023-08-07T06:38:33;2.50;;;2.30;;
80175;SDS011;71945;42.122;24.732;2023-08-07T06:41:02;3.47;;;2.58;;
80175;SDS011;71945;42.122;24.732;2023-08-07T06:43:29;3.42;;;3.00;;
80175;SDS011;71945;42.122;24.732;2023-08-07T06:45:55;10.05;;;4.72;;
80175;SDS011;71945;42.122;24.732;2023-08-07T06:48:22;3.38;;;3.08;;
80175;SDS011;71945;42.122;24.732;2023-08-07T06:50:51;6.85;;;3.20;;
80175;SDS011;71945;42.122;24.732;2023-08-07T06:53:16;6.50;;;2.90;;
80175;SDS011;71945;42.122;24.732;2023-08-07T06:55:42;2.90;;;2.70;;
80175;SDS011;71945;42.122;24.732;2023-08-07T06:58:09;8.00;;;2.33;;
80175;SDS011;71945;42.122;24.732;2023-08-07T07:00:35;4.97;;;3.05;;
80175;SDS011;71945;42.122;24.732;2023-08-07T07:03:01;3.08;;;2.88;;
80175;SDS011;71945;42.122;24.732;2023-08-07T07:05:27;2.88;;;2.67;;
80175;SDS011;71945;42.122;24.732;2023-08-07T07:07:53;4.93;;;2.63;;
80175;SDS011;71945;42.122;24.732;2023-08-07T07:10:19;4.63;;;2.67;;
80175;SDS011;71945;42.122;24.732;2023-08-07T07:12:45;4.68;;;3.00;;
80175;SDS011;71945;42.122;24.732;2023-08-07T07:15:11;3.40;;;3.03;;
80175;SDS011;71945;42.122;24.732;2023-08-07T07:17:37;2.60;;;2.40;;
80175;SDS011;71945;42.122;24.732;2023-08-07T07:20:03;5.35;;;2.92;;
80175;SDS011;71945;42.122;24.732;2023-08-07T07:22:29;2.80;;;2.47;;
80175;SDS011;71945;42.122;24.732;2023-08-07T07:24:55;7.68;;;2.50;;
80175;SDS011;71945;42.122;24.732;2023-08-07T07:27:21;5.88;;;2.75;;
80175;SDS011;71945;42.122;24.732;2023-08-07T07:29:47;3.38;;;3.05;;
80175;SDS011;71945;42.122;24.732;2023-08-07T07:32:13;3.60;;;2.95;;
80175;SDS011;71945;42.122;24.732;2023-08-07T07:34:39;4.30;;;3.55;;
80175;SDS011;71945;42.122;24.732;2023-08-07T07:37:05;4.57;;;2.25;;
80175;SDS011;71945;42.122;24.732;2023-08-07T07:39:31;2.88;;;2.67;;
80175;SDS011;71945;42.122;24.732;2023-08-07T07:41:56;3.35;;;2.20;;
80175;SDS011;71945;42.122;24.732;2023-08-07T07:44:22;2.40;;;2.30;;
80175;SDS011;71945;42.122;24.732;2023-08-07T07:46:48;4.22;;;2.40;;
80175;SDS011;71945;42.122;24.732;2023-08-07T07:49:13;2.75;;;2.38;;
80175;SDS011;71945;42.122;24.732;2023-08-07T07:51:39;2.65;;;2.40;;
80175;SDS011;71945;42.122;24.732;2023-08-07T07:54:05;2.38;;;2.17;;
80175;SDS011;71945;42.122;24.732;2023-08-07T07:56:34;4.38;;;1.95;;
80175;SDS011;71945;42.122;24.732;2023-08-07T07:58:59;4.80;;;2.45;;
80175;SDS011;71945;42.122;24.732;2023-08-07T08:01:25;2.75;;;1.75;;
80175;SDS011;71945;42.122;24.732;2023-08-07T08:03:51;2.05;;;1.95;;
80175;SDS011;71945;42.122;24.732;2023-08-07T08:06:17;2.72;;;2.10;;
80175;SDS011;71945;42.122;24.732;2023-08-07T08:08:43;2.85;;;2.10;;
80175;SDS011;71945;42.122;24.732;2023-08-07T08:11:08;3.55;;;2.28;;
80175;SDS011;71945;42.122;24.732;2023-08-07T08:13:34;2.60;;;2.40;;
80175;SDS011;71945;42.122;24.732;2023-08-07T08:16:04;5.43;;;2.50;;
80175;SDS011;71945;42.122;24.732;2023-08-07T08:18:30;3.72;;;2.17;;
80175;SDS011;71945;42.122;24.732;2023-08-07T08:20:56;7.53;;;2.35;;
80175;SDS011;71945;42.122;24.732;2023-08-07T08:23:22;2.78;;;1.95;;
80175;SDS011;71945;42.122;24.732;2023-08-07T08:25:48;3.97;;;2.20;;
80175;SDS011;71945;42.122;24.732;2023-08-07T08:28:14;2.10;;;1.90;;
80175;SDS011;71945;42.122;24.732;2023-08-07T08:30:40;6.45;;;2.45;;
80175;SDS011;71945;42.122;24.732;2023-08-07T08:33:06;1.83;;;1.70;;
80175;SDS011;71945;42.122;24.732;2023-08-07T08:35:34;2.92;;;1.75;;
80175;SDS011;71945;42.122;24.732;2023-08-07T08:38:17;4.32;;;1.80;;
80175;SDS011;71945;42.122;24.732;2023-08-07T08:40:42;1.90;;;1.70;;
80175;SDS011;71945;42.122;24.732;2023-08-07T08:43:10;2.13;;;1.92;;
80175;SDS011;71945;42.122;24.732;2023-08-07T08:45:38;2.33;;;2.08;;
80175;SDS011;71945;42.122;24.732;2023-08-07T08:48:05;1.90;;;1.80;;
80175;SDS011;71945;42.122;24.732;2023-08-07T08:50:41;3.75;;;1.80;;
80175;SDS011;71945;42.122;24.732;2023-08-07T08:53:08;4.85;;;2.20;;
80175;SDS011;71945;42.122;24.732;2023-08-07T08:55:34;2.13;;;1.95;;
80175;SDS011;71945;42.122;24.732;2023-08-07T08:58:01;3.03;;;1.92;;
80175;SDS011;71945;42.122;24.732;2023-08-07T09:00:28;3.50;;;2.20;;
80175;SDS011;71945;42.122;24.732;2023-08-07T09:02:55;2.45;;;2.15;;
80175;SDS011;71945;42.122;24.732;2023-08-07T09:05:22;2.20;;;2.00;;
80175;SDS011;71945;42.122;24.732;2023-08-07T09:07:48;2.55;;;2.00;;
80175;SDS011;71945;42.122;24.732;2023-08-07T09:10:14;3.22;;;2.17;;
80175;SDS011;71945;42.122;24.732;2023-08-07T09:12:43;5.22;;;2.95;;
80175;SDS011;71945;42.122;24.732;2023-08-07T09:15:24;4.38;;;2.63;;
80175;SDS011;71945;42.122;24.732;2023-08-07T09:17:53;1.92;;;1.83;;
80175;SDS011;71945;42.122;24.732;2023-08-07T09:20:23;1.95;;;1.85;;
80175;SDS011;71945;42.122;24.732;2023-08-07T09:22:53;1.90;;;1.65;;
80175;SDS011;71945;42.122;24.732;2023-08-07T09:25:32;1.80;;;1.70;;
80175;SDS011;71945;42.122;24.732;2023-08-07T09:28:03;1.80;;;1.50;;
80175;SDS011;71945;42.122;24.732;2023-08-07T09:30:30;1.80;;;1.70;;
80175;SDS011;71945;42.122;24.732;2023-08-07T09:32:57;2.42;;;1.83;;
80175;SDS011;71945;42.122;24.732;2023-08-07T09:35:23;2.15;;;1.98;;
80175;SDS011;71945;42.122;24.732;2023-08-07T09:37:49;2.10;;;1.90;;
80175;SDS011;71945;42.122;24.732;2023-08-07T09:40:15;2.05;;;1.90;;
80175;SDS011;71945;42.122;24.732;2023-08-07T09:42:41;1.75;;;1.65;;
80175;SDS011;71945;42.122;24.732;2023-08-07T09:45:23;1.95;;;1.70;;
80175;SDS011;71945;42.122;24.732;2023-08-07T09:48:05;1.98;;;1.60;;
80175;SDS011;71945;42.122;24.732;2023-08-07T09:52:57;3.65;;;2.50;;
80175;SDS011;71945;42.122;24.732;2023-08-07T09:55:24;3.88;;;2.20;;
80175;SDS011;71945;42.122;24.732;2023-08-07T09:57:50;3.70;;;1.70;;
80175;SDS011;71945;42.122;24.732;2023-08-07T10:00:17;4.25;;;2.60;;
80175;SDS011;71945;42.122;24.732;2023-08-07T10:02:45;2.20;;;1.98;;
80175;SDS011;71945;42.122;24.732;2023-08-07T10:05:12;1.70;;;1.60;;
80175;SDS011;71945;42.122;24.732;2023-08-07T10:07:39;2.33;;;2.22;;
80175;SDS011;71945;42.122;24.732;2023-08-07T10:10:06;2.28;;;2.00;;
80175;SDS011;71945;42.122;24.732;2023-08-07T10:12:33;3.75;;;1.77;;
80175;SDS011;71945;42.122;24.732;2023-08-07T10:14:59;2.38;;;2.05;;
80175;SDS011;71945;42.122;24.732;2023-08-07T10:17:28;2.25;;;2.05;;
80175;SDS011;71945;42.122;24.732;2023-08-07T10:19:56;2.85;;;2.65;;
80175;SDS011;71945;42.122;24.732;2023-08-07T10:22:25;3.25;;;2.20;;
80175;SDS011;71945;42.122;24.732;2023-08-07T10:24:54;4.40;;;2.00;;
80175;SDS011;71945;42.122;24.732;2023-08-07T10:27:23;2.42;;;2.20;;
80175;SDS011;71945;42.122;24.732;2023-08-07T10:29:51;2.75;;;1.60;;
80175;SDS011;71945;42.122;24.732;2023-08-07T10:32:25;2.28;;;2.10;;
80175;SDS011;71945;42.122;24.732;2023-08-07T10:34:52;2.92;;;2.10;;
80175;SDS011;71945;42.122;24.732;2023-08-07T10:40:10;2.10;;;1.90;;
80175;SDS011;71945;42.122;24.732;2023-08-07T10:45:20;1.90;;;1.80;;
80175;SDS011;71945;42.122;24.732;2023-08-07T10:50:50;2.47;;;1.50;;
80175;SDS011;71945;42.122;24.732;2023-08-07T10:53:19;2.30;;;1.98;;
80175;SDS011;71945;42.122;24.732;2023-08-07T10:55:53;2.15;;;1.95;;
80175;SDS011;71945;42.122;24.732;2023-08-07T10:58:26;2.65;;;2.45;;
80175;SDS011;71945;42.122;24.732;2023-08-07T11:04:06;1.92;;;1.70;;
80175;SDS011;71945;42.122;24.732;2023-08-07T11:06:33;2.08;;;1.88;;
80175;SDS011;71945;42.122;24.732;2023-08-07T11:09:00;1.80;;;1.70;;
80175;SDS011;71945;42.122;24.732;2023-08-07T11:11:36;2.67;;;1.90;;
80175;SDS011;71945;42.122;24.732;2023-08-07T11:14:05;2.60;;;1.83;;
80175;SDS011;71945;42.122;24.732;2023-08-07T11:16:33;2.10;;;1.90;;
80175;SDS011;71945;42.122;24.732;2023-08-07T11:18:59;1.98;;;1.88;;
80175;SDS011;71945;42.122;24.732;2023-08-07T11:21:25;2.22;;;2.03;;
80175;SDS011;71945;42.122;24.732;2023-08-07T11:23:51;3.78;;;1.98;;
80175;SDS011;71945;42.122;24.732;2023-08-07T11:26:19;2.10;;;2.00;;
80175;SDS011;71945;42.122;24.732;2023-08-07T11:28:47;2.47;;;2.28;;
80175;SDS011;71945;42.122;24.732;2023-08-07T11:31:13;7.28;;;1.80;;
80175;SDS011;71945;42.122;24.732;2023-08-07T11:33:40;2.20;;;1.88;;
80175;SDS011;71945;42.122;24.732;2023-08-07T11:36:12;2.65;;;1.80;;
80175;SDS011;71945;42.122;24.732;2023-08-07T11:38:40;3.38;;;1.70;;
80175;SDS011;71945;42.122;24.732;2023-08-07T11:41:10;2.47;;;1.55;;
80175;SDS011;71945;42.122;24.732;2023-08-07T11:43:37;1.27;;;1.25;;
80175;SDS011;71945;42.122;24.732;2023-08-07T11:46:05;3.13;;;2.17;;
80175;SDS011;71945;42.122;24.732;2023-08-07T11:48:33;1.80;;;1.70;;
80175;SDS011;71945;42.122;24.732;2023-08-07T11:51:04;2.00;;;1.90;;
80175;SDS011;71945;42.122;24.732;2023-08-07T11:53:32;2.25;;;1.80;;
80175;SDS011;71945;42.122;24.732;2023-08-07T11:56:03;2.17;;;2.08;;
80175;SDS011;71945;42.122;24.732;2023-08-07T11:58:40;3.20;;;2.25;;
80175;SDS011;71945;42.122;24.732;2023-08-07T12:01:14;2.78;;;2.10;;
80175;SDS011;71945;42.122;24.732;2023-08-07T12:03:42;1.95;;;1.83;;
80175;SDS011;71945;42.122;24.732;2023-08-07T12:06:15;2.95;;;2.33;;
80175;SDS011;71945;42.122;24.732;2023-08-07T12:08:41;3.22;;;2.30;;
80175;SDS011;71945;42.122;24.732;2023-08-07T12:11:10;2.88;;;2.05;;
80175;SDS011;71945;42.122;24.732;2023-08-07T12:13:37;3.33;;;2.40;;
80175;SDS011;71945;42.122;24.732;2023-08-07T12:16:04;4.32;;;2.65;;
80175;SDS011;71945;42.122;24.732;2023-08-07T12:18:31;3.50;;;2.40;;
80175;SDS011;71945;42.122;24.732;2023-08-07T12:21:01;2.38;;;2.17;;
80175;SDS011;71945;42.122;24.732;2023-08-07T12:23:32;2.33;;;1.92;;
80175;SDS011;71945;42.122;24.732;2023-08-07T12:25:58;2.20;;;1.98;;
80175;SDS011;71945;42.122;24.732;2023-08-07T12:28:24;2.97;;;2.67;;
80175;SDS011;71945;42.122;24.732;2023-08-07T12:30:50;4.50;;;2.40;;
80175;SDS011;71945;42.122;24.732;2023-08-07T12:33:16;2.67;;;2.47;;
80175;SDS011;71945;42.122;24.732;2023-08-07T12:35:42;2.70;;;2.50;;
80175;SDS011;71945;42.122;24.732;2023-08-07T12:38:08;2.38;;;2.17;;
80175;SDS011;71945;42.122;24.732;2023-08-07T12:40:34;2.30;;;2.10;;
80175;SDS011;71945;42.122;24.732;2023-08-07T12:43:03;2.53;;;2.42;;
80175;SDS011;71945;42.122;24.732;2023-08-07T12:45:29;3.17;;;2.25;;
80175;SDS011;71945;42.122;24.732;2023-08-07T12:47:55;3.50;;;2.50;;
80175;SDS011;71945;42.122;24.732;2023-08-07T12:50:20;2.28;;;1.85;;
80175;SDS011;71945;42.122;24.732;2023-08-07T12:52:46;2.75;;;1.70;;
80175;SDS011;71945;42.122;24.732;2023-08-07T12:55:12;2.25;;;2.05;;
80175;SDS011;71945;42.122;24.732;2023-08-07T12:57:40;4.47;;;2.22;;
80175;SDS011;71945;42.122;24.732;2023-08-07T13:00:07;2.60;;;2.17;;
80175;SDS011;71945;42.122;24.732;2023-08-07T13:02:36;2.70;;;2.50;;
80175;SDS011;71945;42.122;24.732;2023-08-07T13:05:02;3.67;;;2.40;;
80175;SDS011;71945;42.122;24.732;2023-08-07T13:07:31;3.90;;;2.38;;
80175;SDS011;71945;42.122;24.732;2023-08-07T13:09:56;4.22;;;2.22;;
80175;SDS011;71945;42.122;24.732;2023-08-07T13:12:22;3.55;;;2.30;;
80175;SDS011;71945;42.122;24.732;2023-08-07T13:14:48;2.80;;;2.22;;
80175;SDS011;71945;42.122;24.732;2023-08-07T13:17:14;6.15;;;2.20;;
80175;SDS011;71945;42.122;24.732;2023-08-07T13:19:39;5.65;;;1.90;;
80175;SDS011;71945;42.122;24.732;2023-08-07T13:22:06;2.95;;;2.05;;
80175;SDS011;71945;42.122;24.732;2023-08-07T13:24:32;2.42;;;2.10;;
80175;SDS011;71945;42.122;24.732;2023-08-07T13:26:58;3.63;;;3.30;;
80175;SDS011;71945;42.122;24.732;2023-08-07T13:29:23;3.40;;;2.60;;
80175;SDS011;71945;42.122;24.732;2023-08-07T13:31:51;3.72;;;2.50;;
80175;SDS011;71945;42.122;24.732;2023-08-07T13:34:16;3.92;;;2.10;;
80175;SDS011;71945;42.122;24.732;2023-08-07T13:36:42;3.83;;;2.45;;
80175;SDS011;71945;42.122;24.732;2023-08-07T13:39:08;4.80;;;2.25;;
80175;SDS011;71945;42.122;24.732;2023-08-07T13:41:34;2.67;;;2.08;;
80175;SDS011;71945;42.122;24.732;2023-08-07T13:44:00;4.45;;;2.28;;
80175;SDS011;71945;42.122;24.732;2023-08-07T13:46:29;3.38;;;2.53;;
80175;SDS011;71945;42.122;24.732;2023-08-07T13:48:55;3.80;;;2.30;;
80175;SDS011;71945;42.122;24.732;2023-08-07T13:51:21;5.47;;;2.30;;
80175;SDS011;71945;42.122;24.732;2023-08-07T13:53:46;2.47;;;2.28;;
80175;SDS011;71945;42.122;24.732;2023-08-07T13:56:12;3.20;;;2.28;;
80175;SDS011;71945;42.122;24.732;2023-08-07T13:58:41;3.60;;;2.10;;
80175;SDS011;71945;42.122;24.732;2023-08-07T14:01:07;2.00;;;1.90;;
80175;SDS011;71945;42.122;24.732;2023-08-07T14:03:33;5.18;;;2.10;;
80175;SDS011;71945;42.122;24.732;2023-08-07T14:05:59;2.78;;;1.80;;
80175;SDS011;71945;42.122;24.732;2023-08-07T14:08:25;2.47;;;2.28;;
80175;SDS011;71945;42.122;24.732;2023-08-07T14:10:51;5.40;;;2.20;;
80175;SDS011;71945;42.122;24.732;2023-08-07T14:13:17;4.78;;;4.38;;
80175;SDS011;71945;42.122;24.732;2023-08-07T14:15:42;2.58;;;1.85;;
80175;SDS011;71945;42.122;24.732;2023-08-07T14:18:08;3.58;;;3.28;;
80175;SDS011;71945;42.122;24.732;2023-08-07T14:20:35;2.33;;;2.10;;
80175;SDS011;71945;42.122;24.732;2023-08-07T14:23:00;2.42;;;2.08;;
80175;SDS011;71945;42.122;24.732;2023-08-07T14:25:26;2.47;;;2.28;;
80175;SDS011;71945;42.122;24.732;2023-08-07T14:27:52;5.35;;;2.08;;
80175;SDS011;71945;42.122;24.732;2023-08-07T14:30:19;2.60;;;2.38;;
80175;SDS011;71945;42.122;24.732;2023-08-07T14:32:45;5.57;;;2.13;;
80175;SDS011;71945;42.122;24.732;2023-08-07T14:35:14;3.58;;;2.20;;
80175;SDS011;71945;42.122;24.732;2023-08-07T14:37:40;2.80;;;2.60;;
80175;SDS011;71945;42.122;24.732;2023-08-07T14:40:09;3.10;;;2.15;;
80175;SDS011;71945;42.122;24.732;2023-08-07T14:42:35;2.35;;;1.80;;
80175;SDS011;71945;42.122;24.732;2023-08-07T14:45:01;3.75;;;2.00;;
80175;SDS011;71945;42.122;24.732;2023-08-07T14:47:27;1.77;;;1.67;;
80175;SDS011;71945;42.122;24.732;2023-08-07T14:49:52;2.70;;;2.08;;